Time;durP1;ratioP1;P1;durP2;ratioP2;P2;SDS_P1;SDS_P2;PMS_P1;PMS_P2;Temp;Humidity;BMP_temperature;BMP_pressure;BME280_temperature;BME280_humidity;BME280_pressure;Samples;Min_cycle;Max_cycle;Signal;HPM_P1;HPM_P2
2021/10/09 00:00:46;;;;;;;14.32;7.35;;;6.50;99.90;;;;;;4931951;29;20043;-79
2021/10/09 00:03:11;;;;;;;13.55;6.68;;;6.50;99.90;;;;;;4950287;29;20122;-80
2021/10/09 00:05:37;;;;;;;11.18;6.28;;;6.50;99.90;;;;;;4915894;29;20035;-79
2021/10/09 00:08:03;;;;;;;11.50;6.97;;;6.40;99.90;;;;;;4955333;29;20062;-79
2021/10/09 00:10:32;;;;;;;14.02;6.72;;;6.40;99.90;;;;;;4934131;29;20043;-79
2021/10/09 00:12:57;;;;;;;13.82;6.63;;;6.40;99.90;;;;;;4935579;29;20035;-80
2021/10/09 00:15:24;;;;;;;12.40;6.25;;;6.40;99.90;;;;;;4948096;29;20118;-80
2021/10/09 00:17:50;;;;;;;12.80;7.15;;;6.30;99.90;;;;;;4935638;29;20031;-79
2021/10/09 00:20:15;;;;;;;14.05;6.63;;;6.30;99.90;;;;;;4952978;28;20046;-79
2021/10/09 00:22:41;;;;;;;11.18;6.30;;;6.30;99.90;;;;;;4921858;29;20494;-80
2021/10/09 00:25:08;;;;;;;10.95;6.93;;;6.20;99.90;;;;;;4938889;29;20062;-78
2021/10/09 00:27:34;;;;;;;13.25;6.95;;;6.20;99.90;;;;;;4954784;29;20402;-80
2021/10/09 00:30:01;;;;;;;12.75;6.93;;;6.20;99.90;;;;;;4954058;28;20112;-80
2021/10/09 00:32:26;;;;;;;13.80;6.70;;;6.20;99.90;;;;;;4949112;29;20031;-80
2021/10/09 00:34:52;;;;;;;17.40;7.20;;;6.20;99.90;;;;;;4929851;29;20697;-80
2021/10/09 00:37:18;;;;;;;11.55;6.38;;;6.10;99.90;;;;;;4932557;29;20134;-80
2021/10/09 00:39:44;;;;;;;10.85;7.05;;;6.10;99.90;;;;;;4910465;29;20048;-80
2021/10/09 00:42:10;;;;;;;13.07;6.95;;;6.10;99.90;;;;;;4955098;29;20059;-80
2021/10/09 00:44:36;;;;;;;11.07;6.47;;;6.10;99.90;;;;;;4910832;29;20074;-80
2021/10/09 00:47:03;;;;;;;12.63;6.45;;;6.10;99.90;;;;;;4948531;29;20028;-80
2021/10/09 00:49:30;;;;;;;16.50;6.93;;;6.00;99.90;;;;;;4937041;29;20098;-80
2021/10/09 00:51:58;;;;;;;10.50;6.53;;;6.00;99.90;;;;;;4954998;29;20058;-80
2021/10/09 00:54:27;;;;;;;18.00;7.43;;;6.00;99.90;;;;;;4954915;29;20031;-79
2021/10/09 00:56:57;;;;;;;11.60;6.72;;;5.90;99.90;;;;;;4916747;29;20183;-79
2021/10/09 00:59:26;;;;;;;14.93;6.93;;;5.90;99.90;;;;;;4916676;29;20130;-80
2021/10/09 01:01:53;;;;;;;13.25;6.57;;;5.90;99.90;;;;;;4951014;29;20045;-79
2021/10/09 01:04:19;;;;;;;13.52;7.15;;;5.90;99.90;;;;;;4940130;29;20055;-79
2021/10/09 01:06:45;;;;;;;12.27;6.97;;;5.80;99.90;;;;;;4933364;29;20027;-80
2021/10/09 01:09:12;;;;;;;13.38;7.35;;;5.80;99.90;;;;;;4929708;29;20090;-79
2021/10/09 01:11:39;;;;;;;15.57;6.78;;;5.80;99.90;;;;;;4936964;29;20039;-80
2021/10/09 01:14:06;;;;;;;13.95;7.40;;;5.70;99.90;;;;;;4934649;29;20039;-80
2021/10/09 01:16:32;;;;;;;13.52;7.00;;;5.70;99.90;;;;;;4934248;29;20035;-79
2021/10/09 01:18:59;;;;;;;12.23;6.93;;;5.70;99.90;;;;;;4930939;28;20036;-80
2021/10/09 01:21:36;;;;;;;13.82;7.75;;;5.70;99.90;;;;;;4920243;29;20094;-79
2021/10/09 01:24:02;;;;;;;10.45;6.50;;;5.70;99.90;;;;;;4952337;29;20085;-80
2021/10/09 01:26:28;;;;;;;16.92;7.75;;;5.60;99.90;;;;;;4922717;29;20055;-80
2021/10/09 01:28:53;;;;;;;10.75;6.65;;;5.60;99.90;;;;;;4948202;28;20031;-79
2021/10/09 01:31:19;;;;;;;10.35;6.07;;;5.60;99.90;;;;;;4939255;29;20051;-79
2021/10/09 01:33:46;;;;;;;13.35;7.85;;;5.60;99.90;;;;;;4958667;29;20629;-80
2021/10/09 01:36:15;;;;;;;10.93;5.55;;;5.50;99.90;;;;;;4932207;29;20042;-80
2021/10/09 01:38:51;;;;;;;14.60;6.25;;;5.50;99.90;;;;;;4952024;28;20027;-80
2021/10/09 01:41:20;;;;;;;10.20;5.65;;;5.50;99.90;;;;;;4935719;29;20050;-80
2021/10/09 01:43:46;;;;;;;9.95;5.95;;;5.50;99.90;;;;;;4954610;29;20028;-80
2021/10/09 01:46:14;;;;;;;12.60;6.38;;;5.50;99.90;;;;;;4938876;29;20095;-78
2021/10/09 01:48:41;;;;;;;10.68;6.13;;;5.40;99.90;;;;;;4945762;29;20484;-80
2021/10/09 01:51:10;;;;;;;9.52;5.60;;;5.40;99.90;;;;;;4931883;29;20119;-79
2021/10/09 01:53:37;;;;;;;11.02;6.10;;;5.40;99.90;;;;;;4947653;29;20062;-79
2021/10/09 01:56:04;;;;;;;11.52;6.10;;;5.40;99.90;;;;;;4933250;29;20032;-78
2021/10/09 01:58:33;;;;;;;14.73;6.93;;;5.30;99.90;;;;;;4926334;29;20063;-79
2021/10/09 02:01:00;;;;;;;12.13;6.95;;;5.40;99.90;;;;;;4942001;29;20038;-79
2021/10/09 02:03:26;;;;;;;11.02;6.63;;;5.40;99.90;;;;;;4930688;29;20031;-79
2021/10/09 02:05:54;;;;;;;13.80;6.15;;;5.30;99.90;;;;;;4919061;29;20027;-80
2021/10/09 02:08:19;;;;;;;13.85;6.47;;;5.30;99.90;;;;;;4932700;29;20035;-78
2021/10/09 02:13:17;;;;;;;13.88;7.60;;;5.30;99.90;;;;;;4930139;29;20063;-79
2021/10/09 02:16:10;;;;;;;10.63;5.88;;;5.20;99.90;;;;;;4934586;29;20032;-79
2021/10/09 02:26:24;;;;;;;13.10;6.45;;;5.10;99.90;;;;;;4937705;29;20040;-78
2021/10/09 02:28:53;;;;;;;9.68;6.18;;;5.20;99.90;;;;;;4932863;29;20031;-79
2021/10/09 02:31:19;;;;;;;13.15;6.70;;;5.20;99.90;;;;;;4923565;29;20138;-79
2021/10/09 02:33:45;;;;;;;10.85;6.05;;;5.10;99.90;;;;;;4912159;29;20102;-79
2021/10/09 02:36:10;;;;;;;12.80;6.35;;;5.10;99.90;;;;;;4932241;29;20039;-78
2021/10/09 02:38:38;;;;;;;10.40;5.60;;;5.10;99.90;;;;;;4933100;29;20039;-79
2021/10/09 02:41:05;;;;;;;12.68;6.43;;;5.10;99.90;;;;;;4951668;29;20511;-79
2021/10/09 02:43:31;;;;;;;14.25;7.30;;;5.10;99.90;;;;;;4950249;29;20043;-78
2021/10/09 02:45:56;;;;;;;10.35;6.50;;;5.10;99.90;;;;;;4933547;29;20514;-79
2021/10/09 02:48:27;;;;;;;11.48;6.05;;;5.00;99.90;;;;;;4908575;29;20035;-79
2021/10/09 02:50:53;;;;;;;11.43;6.30;;;5.10;99.90;;;;;;4952457;28;20031;-79
2021/10/09 02:53:22;;;;;;;10.02;5.55;;;5.00;99.90;;;;;;4934284;29;20114;-79
2021/10/09 02:55:48;;;;;;;12.00;6.65;;;5.00;99.90;;;;;;4921019;29;20039;-79
2021/10/09 02:58:15;;;;;;;11.05;6.28;;;5.00;99.90;;;;;;4935178;29;20058;-78
2021/10/09 03:00:41;;;;;;;13.30;6.15;;;5.00;99.90;;;;;;4934515;29;20059;-78
2021/10/09 03:03:07;;;;;;;15.50;6.47;;;4.90;99.90;;;;;;4916759;29;20130;-79
2021/10/09 03:05:33;;;;;;;9.43;5.90;;;4.90;99.90;;;;;;4931654;29;20058;-79
2021/10/09 03:07:59;;;;;;;12.45;6.15;;;4.90;99.90;;;;;;4949039;29;20028;-78
2021/10/09 03:10:26;;;;;;;9.68;5.50;;;4.80;99.90;;;;;;4949611;29;20023;-79
2021/10/09 03:12:52;;;;;;;11.50;6.30;;;4.80;99.90;;;;;;4930322;29;20035;-79
2021/10/09 03:15:18;;;;;;;12.30;6.93;;;4.80;99.90;;;;;;4948644;29;20038;-79
2021/10/09 03:17:45;;;;;;;16.05;6.57;;;4.80;99.90;;;;;;4951230;29;20036;-79
2021/10/09 03:20:12;;;;;;;10.93;5.78;;;4.70;99.90;;;;;;4912119;29;20035;-80
2021/10/09 03:22:38;;;;;;;9.60;5.72;;;4.70;99.90;;;;;;4933454;29;20061;-79
2021/10/09 03:25:06;;;;;;;11.10;6.13;;;4.70;99.90;;;;;;4942705;29;20470;-79
2021/10/09 03:27:32;;;;;;;12.10;6.60;;;4.60;99.90;;;;;;4950368;29;20130;-79
2021/10/09 03:30:01;;;;;;;16.13;6.47;;;4.60;99.90;;;;;;4926467;29;20062;-80
2021/10/09 03:32:28;;;;;;;14.93;6.15;;;4.60;99.90;;;;;;4915974;29;20126;-79
2021/10/09 03:34:54;;;;;;;10.30;6.13;;;4.60;99.90;;;;;;4927397;29;20070;-79
2021/10/09 03:37:20;;;;;;;15.05;6.22;;;4.60;99.90;;;;;;4926553;29;20042;-79
2021/10/09 03:39:49;;;;;;;11.48;6.75;;;4.60;99.90;;;;;;4926997;29;20414;-78
2021/10/09 03:42:31;;;;;;;10.57;6.15;;;4.60;99.90;;;;;;4937506;28;20035;-79
2021/10/09 03:45:07;;;;;;;13.57;6.35;;;4.60;99.90;;;;;;4946798;29;20039;-78
2021/10/09 03:52:52;;;;;;;11.20;5.97;;;4.50;99.90;;;;;;4929831;29;20035;-80
2021/10/09 03:55:19;;;;;;;11.93;6.35;;;4.50;99.90;;;;;;4932882;29;20040;-79
2021/10/09 03:57:48;;;;;;;13.95;6.72;;;4.40;99.90;;;;;;4921174;29;20042;-79
2021/10/09 04:00:19;;;;;;;8.98;5.75;;;4.40;99.90;;;;;;4944910;28;20047;-78
2021/10/09 04:02:50;;;;;;;11.10;6.37;;;4.40;99.90;;;;;;4932819;29;20043;-80
2021/10/09 04:05:16;;;;;;;11.32;6.20;;;4.40;99.90;;;;;;4929625;29;20335;-79
2021/10/09 04:07:43;;;;;;;10.65;6.40;;;4.40;99.90;;;;;;4943528;29;20035;-79
2021/10/09 04:10:11;;;;;;;10.10;6.10;;;4.30;99.90;;;;;;4928716;29;20028;-79
2021/10/09 04:12:39;;;;;;;13.30;5.80;;;4.30;99.90;;;;;;4932440;29;20055;-78
2021/10/09 04:15:06;;;;;;;13.00;6.82;;;4.30;99.90;;;;;;4931570;29;20035;-78
2021/10/09 04:17:34;;;;;;;12.45;7.10;;;4.30;99.90;;;;;;4918040;29;20191;-79
2021/10/09 04:20:00;;;;;;;11.80;6.10;;;4.30;99.90;;;;;;4921972;29;20140;-79
2021/10/09 04:22:27;;;;;;;11.77;5.20;;;4.30;99.90;;;;;;4939579;29;20525;-79
2021/10/09 04:24:53;;;;;;;9.88;5.50;;;4.30;99.90;;;;;;4956142;29;20063;-79
2021/10/09 04:27:18;;;;;;;8.68;5.05;;;4.30;99.90;;;;;;4927843;29;20032;-79
2021/10/09 04:29:45;;;;;;;15.27;6.05;;;4.30;99.90;;;;;;4932685;29;20112;-79
2021/10/09 04:32:10;;;;;;;11.13;5.70;;;4.20;99.90;;;;;;4933019;29;20027;-79
2021/10/09 04:34:36;;;;;;;11.55;6.60;;;4.20;99.90;;;;;;4932396;29;20043;-79
2021/10/09 04:37:02;;;;;;;13.88;6.75;;;4.20;99.90;;;;;;4926384;29;20027;-79
2021/10/09 04:39:31;;;;;;;10.63;5.78;;;4.10;99.90;;;;;;4953560;28;20050;-79
2021/10/09 04:41:58;;;;;;;12.13;6.53;;;4.10;99.90;;;;;;4937130;29;20044;-79
2021/10/09 04:44:26;;;;;;;10.90;6.18;;;4.10;99.90;;;;;;4931643;29;20058;-79
2021/10/09 04:46:51;;;;;;;13.10;6.63;;;4.10;99.90;;;;;;4933578;29;20031;-79
2021/10/09 04:49:18;;;;;;;12.10;6.25;;;4.10;99.90;;;;;;4921190;29;20028;-79
2021/10/09 04:51:44;;;;;;;12.27;7.03;;;4.10;99.90;;;;;;4938365;29;20718;-79
2021/10/09 04:54:10;;;;;;;13.32;6.45;;;4.00;99.90;;;;;;4952754;28;20039;-79
2021/10/09 04:56:36;;;;;;;15.98;6.90;;;4.00;99.90;;;;;;4936571;29;20035;-79
2021/10/09 04:59:04;;;;;;;14.77;6.32;;;4.10;99.90;;;;;;4954274;28;20114;-78
2021/10/09 05:01:30;;;;;;;14.68;7.00;;;4.00;99.90;;;;;;4918940;29;20072;-78
2021/10/09 05:03:57;;;;;;;12.13;6.32;;;4.00;99.90;;;;;;4940955;29;20038;-79
2021/10/09 05:06:23;;;;;;;12.40;6.55;;;4.00;99.90;;;;;;4937024;29;20034;-79
2021/10/09 05:08:49;;;;;;;12.73;6.28;;;3.90;99.90;;;;;;4936705;28;20067;-79
2021/10/09 05:11:19;;;;;;;12.55;6.80;;;3.90;99.90;;;;;;4959082;29;20075;-79
2021/10/09 05:13:47;;;;;;;12.85;7.25;;;3.90;99.90;;;;;;4936568;29;20023;-79
2021/10/09 05:16:14;;;;;;;12.77;6.78;;;3.90;99.90;;;;;;4957769;28;20038;-79
2021/10/09 05:18:41;;;;;;;15.50;7.03;;;3.90;99.90;;;;;;4926058;29;20592;-78
2021/10/09 05:21:08;;;;;;;12.63;7.03;;;3.90;99.90;;;;;;4937204;29;20035;-79
2021/10/09 05:23:35;;;;;;;15.98;8.10;;;3.90;99.90;;;;;;4934561;29;20118;-79
2021/10/09 05:26:05;;;;;;;16.55;7.55;;;3.90;99.90;;;;;;4926489;29;20406;-79
2021/10/09 05:28:52;;;;;;;16.20;7.53;;;3.90;99.90;;;;;;4921960;29;20100;-78
2021/10/09 05:31:26;;;;;;;15.63;8.30;;;3.80;99.90;;;;;;4938382;29;20035;-79
2021/10/09 05:33:55;;;;;;;15.13;8.35;;;3.80;99.90;;;;;;4912862;29;20034;-79
2021/10/09 05:36:23;;;;;;;18.75;8.07;;;3.80;99.90;;;;;;4958744;28;20114;-79
2021/10/09 05:38:50;;;;;;;17.90;8.60;;;3.80;99.90;;;;;;4922175;28;20028;-79
2021/10/09 05:41:16;;;;;;;17.80;8.52;;;3.80;99.90;;;;;;4942771;29;20478;-79
2021/10/09 05:43:48;;;;;;;15.85;8.00;;;3.80;99.90;;;;;;4955940;29;20034;-80
2021/10/09 05:46:14;;;;;;;16.45;8.45;;;3.90;99.90;;;;;;4924969;29;20095;-80
2021/10/09 05:48:41;;;;;;;15.52;8.50;;;3.90;99.90;;;;;;4920753;29;20060;-79
2021/10/09 05:56:23;;;;;;;24.42;11.70;;;3.90;99.90;;;;;;4937826;29;20039;-79
2021/10/09 07:00:59;;;;;;;14.77;7.82;;;7.20;99.90;;;;;;4933349;29;20031;-79
2021/10/09 07:03:24;;;;;;;24.52;10.85;;;7.30;99.90;;;;;;4930714;29;20059;-79
2021/10/09 07:05:56;;;;;;;21.27;11.10;;;7.30;99.90;;;;;;4934816;29;20120;-79
2021/10/09 07:08:28;;;;;;;23.50;11.40;;;7.30;99.90;;;;;;4914646;29;20058;-80
2021/10/09 07:11:03;;;;;;;27.95;12.20;;;7.30;99.90;;;;;;4930851;29;20031;-79
2021/10/09 07:13:29;;;;;;;22.17;11.60;;;7.30;99.90;;;;;;4951412;29;20042;-79
2021/10/09 07:15:55;;;;;;;29.52;11.35;;;7.30;99.90;;;;;;4924479;29;20502;-79
2021/10/09 07:18:21;;;;;;;24.80;11.27;;;7.30;99.90;;;;;;4937769;29;20039;-80
2021/10/09 07:20:47;;;;;;;27.98;11.80;;;7.20;99.90;;;;;;4933015;29;20367;-79
2021/10/09 07:23:12;;;;;;;22.95;11.98;;;7.20;99.90;;;;;;4939254;29;20062;-79
2021/10/09 07:25:39;;;;;;;24.55;11.70;;;7.20;99.90;;;;;;4938257;29;20416;-80
2021/10/09 07:28:05;;;;;;;19.05;10.82;;;7.10;99.90;;;;;;4951647;29;20223;-80
2021/10/09 07:30:31;;;;;;;21.27;10.68;;;7.10;99.90;;;;;;4915586;29;20093;-78
2021/10/09 07:32:57;;;;;;;19.77;11.75;;;7.10;99.90;;;;;;4936015;29;20028;-79
2021/10/09 07:35:23;;;;;;;18.48;10.95;;;7.00;99.90;;;;;;4935418;29;20400;-78
2021/10/09 07:37:49;;;;;;;21.38;11.02;;;7.00;99.90;;;;;;4955696;29;20027;-80
2021/10/09 07:40:16;;;;;;;25.80;12.52;;;7.00;99.90;;;;;;4928516;29;20051;-80
2021/10/09 07:42:42;;;;;;;22.88;12.77;;;7.00;99.90;;;;;;4915116;29;20414;-79
2021/10/09 07:45:08;;;;;;;24.98;12.80;;;7.00;99.90;;;;;;4946249;29;20032;-80
2021/10/09 07:47:34;;;;;;;25.17;12.82;;;7.00;99.90;;;;;;4945569;29;20036;-79
2021/10/09 07:50:00;;;;;;;26.00;12.07;;;7.10;99.90;;;;;;4914114;29;20036;-80
2021/10/09 07:52:25;;;;;;;24.50;12.68;;;7.10;99.90;;;;;;4937216;29;20668;-79
2021/10/09 07:54:52;;;;;;;21.60;11.93;;;7.20;99.90;;;;;;4930816;29;20040;-80
2021/10/09 07:57:18;;;;;;;23.67;12.68;;;7.30;99.90;;;;;;4921667;29;20044;-79
2021/10/09 07:59:44;;;;;;;22.02;11.90;;;7.30;99.90;;;;;;4923966;29;20043;-79
2021/10/09 08:02:10;;;;;;;26.23;13.73;;;7.30;99.90;;;;;;4930574;29;20039;-79
2021/10/09 08:04:35;;;;;;;24.98;11.93;;;7.40;99.90;;;;;;4919361;29;20039;-79
2021/10/09 08:07:02;;;;;;;28.60;12.38;;;7.40;99.90;;;;;;4928022;29;20050;-80
2021/10/09 08:09:34;;;;;;;21.73;11.82;;;7.40;99.90;;;;;;4918693;29;20031;-78
2021/10/09 08:12:00;;;;;;;23.83;11.93;;;7.50;99.90;;;;;;4947700;29;20097;-79
2021/10/09 08:14:26;;;;;;;22.63;11.82;;;7.50;99.90;;;;;;4937326;29;20478;-80
2021/10/09 08:16:52;;;;;;;21.48;12.05;;;7.60;99.90;;;;;;4920087;29;20395;-79
2021/10/09 08:19:18;;;;;;;20.23;11.52;;;7.60;99.90;;;;;;4936137;29;20142;-79
2021/10/09 08:21:45;;;;;;;18.65;11.05;;;7.60;99.90;;;;;;4936974;29;20037;-80
2021/10/09 08:40:10;;;;;;;25.75;13.07;;;8.10;99.90;;;;;;4951562;29;20035;-79
2021/10/09 08:42:36;;;;;;;20.45;11.30;;;8.10;99.90;;;;;;4956653;29;20054;-79
2021/10/09 08:45:03;;;;;;;23.33;11.68;;;8.20;99.90;;;;;;4928395;29;20066;-80
2021/10/09 08:47:33;;;;;;;20.75;11.95;;;8.30;99.90;;;;;;4938329;29;20063;-79
2021/10/09 08:49:59;;;;;;;21.75;10.82;;;8.40;99.90;;;;;;4938202;29;20437;-79
2021/10/09 08:52:26;;;;;;;20.52;12.35;;;8.50;99.90;;;;;;4941688;29;20035;-78
2021/10/09 08:54:51;;;;;;;19.58;10.40;;;8.60;99.90;;;;;;4950682;29;20053;-79
2021/10/09 08:57:21;;;;;;;16.65;9.48;;;8.70;99.90;;;;;;4932356;29;20493;-79
2021/10/09 08:59:56;;;;;;;22.05;10.45;;;8.90;99.90;;;;;;4949015;29;20028;-80
2021/10/09 09:02:27;;;;;;;18.95;9.10;;;9.00;99.90;;;;;;4951071;29;20031;-80
2021/10/09 09:05:08;;;;;;;17.08;9.85;;;9.30;99.90;;;;;;4928823;29;20090;-80
2021/10/09 09:08:29;;;;;;;20.02;10.63;;;9.40;99.90;;;;;;4936819;29;20108;-79
2021/10/09 09:30:28;;;;;;;14.82;8.20;;;10.10;99.90;;;;;;4948916;29;20086;-78
2021/10/09 09:41:20;;;;;;;14.10;6.72;;;10.60;99.90;;;;;;4951649;28;20495;-79
2021/10/09 09:43:54;;;;;;;13.75;6.45;;;10.70;99.90;;;;;;4929164;29;20043;-79
2021/10/09 09:46:26;;;;;;;14.10;6.35;;;10.80;99.90;;;;;;4947168;29;20123;-79
2021/10/09 09:48:53;;;;;;;10.35;5.32;;;11.00;99.90;;;;;;4931725;28;20039;-77
2021/10/09 09:51:21;;;;;;;11.55;6.35;;;11.10;99.90;;;;;;4954718;29;20086;-79
2021/10/09 09:53:49;;;;;;;14.23;5.47;;;11.20;99.90;;;;;;4949401;29;20024;-79
2021/10/09 09:56:16;;;;;;;9.32;4.90;;;11.30;99.90;;;;;;4942644;29;20078;-79
2021/10/09 09:58:44;;;;;;;10.05;5.68;;;11.30;99.90;;;;;;4912783;29;20036;-80
2021/10/09 10:01:13;;;;;;;14.15;6.35;;;11.40;99.90;;;;;;4927438;29;20039;-79
2021/10/09 10:03:45;;;;;;;11.80;5.18;;;11.40;99.90;;;;;;4946951;29;20446;-78
2021/10/09 10:06:11;;;;;;;8.32;4.47;;;11.50;99.90;;;;;;4929716;29;20086;-78
2021/10/09 10:08:41;;;;;;;11.68;4.30;;;11.70;99.90;;;;;;4943353;29;20588;-80
2021/10/09 10:11:11;;;;;;;8.63;4.20;;;11.80;99.90;;;;;;4949098;28;20171;-79
2021/10/09 10:13:38;;;;;;;7.97;4.55;;;11.80;99.90;;;;;;4944033;29;20031;-79
2021/10/09 10:16:10;;;;;;;7.70;4.82;;;11.90;99.90;;;;;;4927130;29;20098;-78
2021/10/09 10:18:45;;;;;;;8.82;4.60;;;12.00;99.90;;;;;;4945635;29;20047;-79
2021/10/09 10:21:12;;;;;;;8.32;4.55;;;12.00;99.90;;;;;;4943457;29;20046;-79
2021/10/09 10:23:41;;;;;;;10.85;3.92;;;12.10;99.90;;;;;;4943859;29;20090;-79
2021/10/09 10:26:33;;;;;;;8.10;4.35;;;12.10;99.90;;;;;;4926612;29;20071;-79
2021/10/09 10:28:58;;;;;;;11.88;4.93;;;12.10;99.90;;;;;;4921702;29;20028;-79
2021/10/09 10:31:26;;;;;;;8.13;4.75;;;12.10;99.90;;;;;;4926957;29;20083;-79
2021/10/09 10:33:59;;;;;;;11.07;4.70;;;12.20;99.90;;;;;;4909919;29;20039;-79
2021/10/09 10:36:45;;;;;;;11.45;4.60;;;12.20;99.90;;;;;;4925649;29;20068;-79
2021/10/09 10:39:11;;;;;;;7.00;3.83;;;12.20;99.90;;;;;;4940142;28;20039;-80
2021/10/09 10:42:03;;;;;;;5.38;3.55;;;12.30;98.00;;;;;;4943610;29;20283;-79
2021/10/09 10:44:51;;;;;;;10.90;4.78;;;12.30;99.90;;;;;;4946841;29;20654;-79
2021/10/09 10:50:43;;;;;;;7.65;4.30;;;12.50;99.20;;;;;;4937009;28;20103;-80
2021/10/09 10:53:15;;;;;;;10.73;4.50;;;12.50;99.40;;;;;;4945182;28;20040;-79
2021/10/09 10:56:06;;;;;;;6.32;3.97;;;12.50;95.70;;;;;;4925770;29;20509;-79
2021/10/09 10:58:32;;;;;;;10.60;4.07;;;12.50;96.70;;;;;;4944137;29;20047;-80
2021/10/09 11:01:21;;;;;;;8.95;4.30;;;12.50;94.80;;;;;;4927174;29;20040;-80
2021/10/09 11:03:57;;;;;;;6.28;3.95;;;12.50;98.10;;;;;;4941626;29;20581;-79
2021/10/09 11:06:25;;;;;;;7.45;4.00;;;12.50;96.60;;;;;;4944567;29;20031;-80
2021/10/09 11:08:52;;;;;;;8.35;4.22;;;12.60;96.10;;;;;;4926504;28;20036;-79
2021/10/09 11:11:35;;;;;;;8.02;3.78;;;12.60;97.90;;;;;;4926478;29;20090;-79
2021/10/09 11:14:01;;;;;;;8.55;4.65;;;12.60;95.10;;;;;;4944511;29;20046;-80
2021/10/09 11:16:31;;;;;;;9.65;4.95;;;12.60;96.70;;;;;;4927374;29;20039;-80
2021/10/09 11:18:57;;;;;;;5.32;4.10;;;12.70;98.00;;;;;;4940826;29;20095;-79
2021/10/09 11:21:23;;;;;;;9.43;4.28;;;12.70;95.20;;;;;;4946172;29;20031;-80
2021/10/09 11:23:54;;;;;;;8.00;3.47;;;12.80;97.00;;;;;;4934310;29;20431;-79
2021/10/09 11:26:21;;;;;;;12.00;3.50;;;12.80;93.80;;;;;;4945981;29;20035;-79
2021/10/09 11:28:58;;;;;;;9.05;3.35;;;12.90;95.70;;;;;;4952001;28;20049;-79
2021/10/09 11:31:25;;;;;;;8.27;4.22;;;12.90;91.40;;;;;;4951883;29;20031;-80
2021/10/09 11:33:55;;;;;;;7.18;3.75;;;12.90;92.00;;;;;;4951378;29;20119;-80
2021/10/09 11:36:22;;;;;;;9.38;3.72;;;12.90;94.70;;;;;;4950427;29;20039;-79
2021/10/09 11:38:57;;;;;;;6.90;3.95;;;12.90;93.00;;;;;;4952768;28;20091;-80
2021/10/09 11:41:24;;;;;;;8.50;3.70;;;12.90;93.70;;;;;;4926900;29;20395;-80
2021/10/09 11:43:58;;;;;;;9.70;3.47;;;12.80;92.20;;;;;;4947678;29;20491;-80
2021/10/09 11:55:17;;;;;;;10.52;4.40;;;13.00;91.10;;;;;;4946687;28;20047;-79
2021/10/09 11:57:43;;;;;;;6.60;3.40;;;12.90;90.60;;;;;;4913191;29;20035;-80
2021/10/09 12:00:27;;;;;;;10.23;3.60;;;12.90;94.30;;;;;;4950125;29;20074;-80
2021/10/09 12:03:12;;;;;;;6.20;3.17;;;13.00;93.30;;;;;;4949429;29;20032;-80
2021/10/09 12:05:55;;;;;;;5.57;3.30;;;12.90;94.90;;;;;;4944446;29;20043;-79
2021/10/09 12:08:25;;;;;;;6.72;3.70;;;13.00;95.40;;;;;;4941016;29;20039;-80
2021/10/09 12:11:11;;;;;;;6.30;3.65;;;13.00;93.00;;;;;;4930416;29;20069;-79
2021/10/09 12:13:53;;;;;;;7.55;3.35;;;13.10;90.80;;;;;;4941193;29;20554;-79
2021/10/09 12:16:23;;;;;;;8.05;3.80;;;13.10;92.80;;;;;;4927664;29;20111;-80
2021/10/09 12:18:57;;;;;;;5.28;3.70;;;13.30;89.50;;;;;;4940777;28;20032;-80
2021/10/09 12:21:25;;;;;;;7.30;3.20;;;13.30;91.10;;;;;;4931116;29;20036;-80
2021/10/09 12:23:53;;;;;;;8.30;3.50;;;13.30;91.90;;;;;;4932164;29;20393;-79
2021/10/09 12:26:20;;;;;;;6.22;3.63;;;13.40;90.20;;;;;;4944032;29;20024;-79
2021/10/09 12:29:15;;;;;;;4.82;3.10;;;13.40;91.10;;;;;;4919970;29;20750;-79
2021/10/09 12:31:43;;;;;;;6.55;3.75;;;13.50;92.50;;;;;;4924090;29;20090;-80
2021/10/09 12:34:29;;;;;;;7.50;4.07;;;13.60;93.50;;;;;;4920526;29;20507;-79
2021/10/09 12:37:10;;;;;;;9.63;3.97;;;13.70;90.50;;;;;;4922109;29;20398;-80
2021/10/09 12:39:37;;;;;;;6.55;3.83;;;13.70;88.60;;;;;;4916950;29;20393;-79
2021/10/09 12:42:04;;;;;;;6.22;3.75;;;13.80;90.90;;;;;;4950429;29;20042;-80
2021/10/09 12:44:30;;;;;;;10.05;4.18;;;13.80;93.10;;;;;;4932994;29;20038;-80
2021/10/09 12:46:55;;;;;;;8.20;4.05;;;13.90;91.60;;;;;;4931890;29;20035;-81
2021/10/09 12:49:21;;;;;;;7.22;3.65;;;14.00;88.00;;;;;;4948772;29;20086;-79
2021/10/09 12:51:48;;;;;;;8.35;3.47;;;14.00;90.30;;;;;;4934313;29;20027;-79
2021/10/09 12:54:17;;;;;;;8.50;4.03;;;14.10;91.20;;;;;;4955889;29;21625;-79
2021/10/09 12:56:44;;;;;;;10.52;4.57;;;14.20;90.00;;;;;;4953418;29;20110;-79
2021/10/09 12:59:11;;;;;;;7.97;3.67;;;14.20;92.10;;;;;;4952077;28;20131;-79
2021/10/09 13:01:37;;;;;;;6.18;3.17;;;14.30;89.60;;;;;;4953792;29;20168;-79
2021/10/09 13:04:03;;;;;;;6.60;3.40;;;14.30;87.80;;;;;;4934911;29;20032;-80
2021/10/09 13:06:29;;;;;;;7.78;3.65;;;14.30;90.20;;;;;;4952181;28;20064;-80
2021/10/09 13:08:56;;;;;;;7.85;3.38;;;14.40;89.30;;;;;;4907692;28;20124;-79
2021/10/09 13:11:27;;;;;;;7.07;3.60;;;14.40;82.40;;;;;;4922152;29;20019;-80
2021/10/09 13:13:53;;;;;;;8.98;3.65;;;14.40;85.80;;;;;;4943022;29;20035;-80
2021/10/09 13:16:19;;;;;;;5.20;3.20;;;14.30;78.80;;;;;;4949067;29;20043;-80
2021/10/09 13:18:45;;;;;;;6.03;3.00;;;14.30;82.80;;;;;;4933584;29;20036;-80
2021/10/09 13:21:11;;;;;;;5.85;2.72;;;14.30;81.70;;;;;;4935808;29;20050;-79
2021/10/09 13:23:37;;;;;;;7.53;2.95;;;14.30;82.50;;;;;;4954200;29;20042;-80
2021/10/09 13:26:03;;;;;;;5.85;2.60;;;14.30;77.60;;;;;;4961307;29;20023;-79
2021/10/09 13:28:29;;;;;;;7.07;3.33;;;14.30;81.80;;;;;;4932012;29;20062;-80
2021/10/09 13:30:55;;;;;;;6.38;3.30;;;14.30;78.40;;;;;;4937927;29;20402;-80
2021/10/09 13:33:21;;;;;;;4.68;3.00;;;14.20;79.50;;;;;;4938854;29;20039;-79
2021/10/09 13:35:47;;;;;;;6.47;3.40;;;14.20;81.20;;;;;;4950128;29;20028;-79
2021/10/09 13:38:14;;;;;;;6.43;3.10;;;14.30;83.20;;;;;;4952851;29;20059;-80
2021/10/09 13:40:40;;;;;;;6.05;2.72;;;14.20;84.30;;;;;;4951805;28;20079;-80
2021/10/09 13:43:11;;;;;;;5.25;2.88;;;14.20;79.70;;;;;;4948672;29;20127;-80
2021/10/09 13:45:40;;;;;;;4.68;2.78;;;14.20;82.90;;;;;;4952032;29;20027;-79
2021/10/09 13:48:06;;;;;;;7.18;2.50;;;14.10;79.90;;;;;;4959033;29;20426;-80
2021/10/09 13:50:36;;;;;;;3.40;2.40;;;14.10;80.50;;;;;;4937126;29;20536;-80
2021/10/09 13:53:02;;;;;;;3.55;2.40;;;14.00;82.10;;;;;;4948539;29;20530;-80
2021/10/09 13:55:28;;;;;;;2.92;2.10;;;14.00;80.60;;;;;;4950222;29;20046;-79
2021/10/09 13:57:53;;;;;;;4.68;2.35;;;14.00;82.50;;;;;;4935414;29;20582;-81
2021/10/09 14:00:19;;;;;;;7.38;3.10;;;14.00;83.90;;;;;;4935720;29;20142;-80
2021/10/09 14:02:46;;;;;;;5.63;2.78;;;14.00;78.70;;;;;;4950492;29;20059;-79
2021/10/09 14:05:12;;;;;;;4.20;2.50;;;14.00;79.40;;;;;;4905560;29;20509;-79
2021/10/09 14:07:38;;;;;;;4.43;2.30;;;14.00;79.80;;;;;;4928085;29;20066;-79
2021/10/09 14:10:04;;;;;;;6.63;2.28;;;14.00;77.00;;;;;;4929435;29;20046;-79
2021/10/09 14:12:31;;;;;;;3.58;2.35;;;14.00;74.70;;;;;;4918171;29;20032;-79
2021/10/09 14:14:58;;;;;;;3.95;2.30;;;14.00;74.00;;;;;;4923792;29;20040;-79
2021/10/09 14:17:24;;;;;;;5.72;2.80;;;14.00;75.10;;;;;;4952884;29;20043;-79
2021/10/09 14:19:54;;;;;;;4.03;2.33;;;14.00;77.50;;;;;;4926976;29;20039;-79
2021/10/09 14:22:22;;;;;;;4.55;2.45;;;13.90;75.60;;;;;;4932585;29;20031;-78
2021/10/09 14:24:48;;;;;;;3.70;2.50;;;13.90;73.80;;;;;;4929576;29;20039;-78
2021/10/09 14:27:14;;;;;;;4.70;2.30;;;13.90;74.90;;;;;;4955761;28;20512;-78
2021/10/09 14:29:39;;;;;;;4.85;2.53;;;13.80;79.10;;;;;;4955112;28;20035;-79
2021/10/09 14:32:05;;;;;;;4.03;2.63;;;13.70;78.70;;;;;;4958520;29;20023;-80
2021/10/09 14:34:31;;;;;;;5.60;2.30;;;13.70;79.10;;;;;;4939673;29;20831;-79
2021/10/09 14:36:57;;;;;;;6.70;2.78;;;13.70;80.50;;;;;;4922132;29;20351;-79
2021/10/09 14:39:24;;;;;;;5.25;2.88;;;13.60;81.00;;;;;;4938759;29;20129;-79
2021/10/09 14:41:50;;;;;;;5.53;3.08;;;13.60;83.20;;;;;;4956226;29;20082;-79
2021/10/09 14:44:16;;;;;;;6.57;2.55;;;13.50;83.20;;;;;;4940005;29;20482;-79
2021/10/09 14:49:39;;;;;;;4.15;2.40;;;13.40;81.90;;;;;;4941923;28;20066;-80
2021/10/09 15:19:45;;;;;;;5.78;2.45;;;12.80;84.00;;;;;;4952193;28;20023;-78
2021/10/09 15:22:10;;;;;;;4.72;2.65;;;12.70;82.70;;;;;;4950874;29;20367;-79
2021/10/09 15:24:36;;;;;;;3.92;2.13;;;12.60;82.10;;;;;;4949065;29;20031;-78
2021/10/09 15:27:03;;;;;;;4.70;2.97;;;12.60;82.30;;;;;;4934547;29;20046;-78
2021/10/09 15:29:28;;;;;;;6.22;2.83;;;12.60;83.60;;;;;;4934963;29;20042;-78
2021/10/09 15:31:54;;;;;;;4.55;2.70;;;12.60;83.40;;;;;;4934998;29;20027;-79
2021/10/09 15:34:20;;;;;;;4.10;2.13;;;12.50;83.90;;;;;;4937853;29;20058;-77
2021/10/09 15:36:46;;;;;;;4.32;2.17;;;12.40;84.40;;;;;;4929179;29;20095;-77
2021/10/09 15:39:12;;;;;;;3.35;2.25;;;12.40;83.80;;;;;;4950557;28;20023;-79
2021/10/09 15:41:38;;;;;;;3.55;2.40;;;12.30;85.20;;;;;;4924300;29;20034;-78